sensor_id;sensor_type;location;lat;lon;timestamp;temperature;humidity
29687;DHT22;16599;47.078;15.536;2023-03-23T00:01:04;6.10;99.90
29687;DHT22;16599;47.078;15.536;2023-03-23T00:03:30;6.00;99.90
29687;DHT22;16599;47.078;15.536;2023-03-23T00:06:00;6.00;99.90
29687;DHT22;16599;47.078;15.536;2023-03-23T00:08:27;5.60;99.90
29687;DHT22;16599;47.078;15.536;2023-03-23T00:10:53;5.60;99.90
29687;DHT22;16599;47.078;15.536;2023-03-23T00:13:25;5.70;99.90
29687;DHT22;16599;47.078;15.536;2023-03-23T00:15:51;5.50;99.90
29687;DHT22;16599;47.078;15.536;2023-03-23T00:18:19;5.50;99.90
29687;DHT22;16599;47.078;15.536;2023-03-23T00:20:49;5.80;99.90
29687;DHT22;16599;47.078;15.536;2023-03-23T00:23:16;5.70;99.90
29687;DHT22;16599;47.078;15.536;2023-03-23T00:25:51;5.70;99.90
29687;DHT22;16599;47.078;15.536;2023-03-23T00:28:18;5.70;99.90
29687;DHT22;16599;47.078;15.536;2023-03-23T00:33:22;5.60;99.90
29687;DHT22;16599;47.078;15.536;2023-03-23T00:35:49;5.60;99.90
29687;DHT22;16599;47.078;15.536;2023-03-23T00:38:21;5.40;99.90
29687;DHT22;16599;47.078;15.536;2023-03-23T00:40:47;5.30;99.90
29687;DHT22;16599;47.078;15.536;2023-03-23T00:43:13;5.50;99.90
29687;DHT22;16599;47.078;15.536;2023-03-23T00:45:39;5.40;99.90
29687;DHT22;16599;47.078;15.536;2023-03-23T00:48:05;5.40;99.90
29687;DHT22;16599;47.078;15.536;2023-03-23T00:50:30;5.40;99.90
29687;DHT22;16599;47.078;15.536;2023-03-23T00:52:57;5.30;99.90
29687;DHT22;16599;47.078;15.536;2023-03-23T00:55:23;5.40;99.90
29687;DHT22;16599;47.078;15.536;2023-03-23T00:57:49;5.20;99.90
29687;DHT22;16599;47.078;15.536;2023-03-23T01:00:15;5.10;99.90
29687;DHT22;16599;47.078;15.536;2023-03-23T01:02:41;5.20;99.90
29687;DHT22;16599;47.078;15.536;2023-03-23T01:05:10;5.30;99.90
29687;DHT22;16599;47.078;15.536;2023-03-23T01:07:36;5.40;99.90
29687;DHT22;16599;47.078;15.536;2023-03-23T01:10:02;5.30;99.90
29687;DHT22;16599;47.078;15.536;2023-03-23T01:12:28;5.20;99.90
29687;DHT22;16599;47.078;15.536;2023-03-23T01:14:53;5.10;99.90
29687;DHT22;16599;47.078;15.536;2023-03-23T01:17:19;5.10;99.90
29687;DHT22;16599;47.078;15.536;2023-03-23T01:19:46;5.10;99.90
29687;DHT22;16599;47.078;15.536;2023-03-23T01:22:12;5.00;99.90
29687;DHT22;16599;47.078;15.536;2023-03-23T01:24:37;5.10;99.90
29687;DHT22;16599;47.078;15.536;2023-03-23T01:27:03;5.10;99.90
29687;DHT22;16599;47.078;15.536;2023-03-23T01:29:35;4.90;99.90
29687;DHT22;16599;47.078;15.536;2023-03-23T01:32:01;4.80;99.90
29687;DHT22;16599;47.078;15.536;2023-03-23T01:34:27;5.00;99.90
29687;DHT22;16599;47.078;15.536;2023-03-23T01:36:52;4.60;99.90
29687;DHT22;16599;47.078;15.536;2023-03-23T01:39:18;4.60;99.90
29687;DHT22;16599;47.078;15.536;2023-03-23T01:41:43;4.80;99.90
29687;DHT22;16599;47.078;15.536;2023-03-23T01:46:41;5.00;99.90
29687;DHT22;16599;47.078;15.536;2023-03-23T01:49:08;5.10;99.90
29687;DHT22;16599;47.078;15.536;2023-03-23T01:51:36;4.80;99.90
29687;DHT22;16599;47.078;15.536;2023-03-23T01:54:03;4.80;99.90
29687;DHT22;16599;47.078;15.536;2023-03-23T01:56:32;4.70;99.90
29687;DHT22;16599;47.078;15.536;2023-03-23T01:59:03;4.80;99.90
29687;DHT22;16599;47.078;15.536;2023-03-23T02:01:29;4.80;99.90
29687;DHT22;16599;47.078;15.536;2023-03-23T02:03:55;4.90;99.90
29687;DHT22;16599;47.078;15.536;2023-03-23T02:06:22;4.70;99.90
29687;DHT22;16599;47.078;15.536;2023-03-23T02:08:49;4.40;99.90
29687;DHT22;16599;47.078;15.536;2023-03-23T02:11:16;4.50;99.90
29687;DHT22;16599;47.078;15.536;2023-03-23T02:13:42;4.50;99.90
29687;DHT22;16599;47.078;15.536;2023-03-23T02:23:56;4.70;99.90
29687;DHT22;16599;47.078;15.536;2023-03-23T02:29:06;4.10;99.90
29687;DHT22;16599;47.078;15.536;2023-03-23T02:36:47;4.30;99.90
29687;DHT22;16599;47.078;15.536;2023-03-23T02:39:14;4.20;99.90
29687;DHT22;16599;47.078;15.536;2023-03-23T02:41:45;4.30;99.90
29687;DHT22;16599;47.078;15.536;2023-03-23T02:44:12;4.30;99.90
29687;DHT22;16599;47.078;15.536;2023-03-23T02:46:40;4.30;99.90
29687;DHT22;16599;47.078;15.536;2023-03-23T02:49:06;4.30;99.90
29687;DHT22;16599;47.078;15.536;2023-03-23T02:51:33;4.40;99.90
29687;DHT22;16599;47.078;15.536;2023-03-23T02:53:59;4.60;99.90
29687;DHT22;16599;47.078;15.536;2023-03-23T02:56:26;4.60;99.90
29687;DHT22;16599;47.078;15.536;2023-03-23T02:58:53;4.30;99.90
29687;DHT22;16599;47.078;15.536;2023-03-23T03:03:51;4.20;99.90
29687;DHT22;16599;47.078;15.536;2023-03-23T03:06:22;4.10;99.90
29687;DHT22;16599;47.078;15.536;2023-03-23T03:08:55;4.10;99.90
29687;DHT22;16599;47.078;15.536;2023-03-23T03:11:22;4.00;99.90
29687;DHT22;16599;47.078;15.536;2023-03-23T03:16:37;4.40;99.90
29687;DHT22;16599;47.078;15.536;2023-03-23T03:21:36;4.20;99.90
29687;DHT22;16599;47.078;15.536;2023-03-23T03:24:03;4.30;99.90
29687;DHT22;16599;47.078;15.536;2023-03-23T03:26:30;3.90;99.90
29687;DHT22;16599;47.078;15.536;2023-03-23T03:28:57;3.80;99.90
29687;DHT22;16599;47.078;15.536;2023-03-23T03:31:30;4.00;99.90
29687;DHT22;16599;47.078;15.536;2023-03-23T03:33:57;4.20;99.90
29687;DHT22;16599;47.078;15.536;2023-03-23T03:36:24;4.20;99.90
29687;DHT22;16599;47.078;15.536;2023-03-23T03:38:51;4.10;99.90
29687;DHT22;16599;47.078;15.536;2023-03-23T03:41:17;4.00;99.90
29687;DHT22;16599;47.078;15.536;2023-03-23T03:43:43;3.90;99.90
29687;DHT22;16599;47.078;15.536;2023-03-23T03:46:09;3.90;99.90
29687;DHT22;16599;47.078;15.536;2023-03-23T03:48:35;4.10;99.90
29687;DHT22;16599;47.078;15.536;2023-03-23T03:51:01;4.10;99.90
29687;DHT22;16599;47.078;15.536;2023-03-23T03:53:28;4.20;99.90
29687;DHT22;16599;47.078;15.536;2023-03-23T03:55:53;4.10;99.90
29687;DHT22;16599;47.078;15.536;2023-03-23T03:58:28;3.90;99.90
29687;DHT22;16599;47.078;15.536;2023-03-23T04:00:57;3.80;99.90
29687;DHT22;16599;47.078;15.536;2023-03-23T04:03:23;3.70;99.90
29687;DHT22;16599;47.078;15.536;2023-03-23T04:05:49;3.80;99.90
29687;DHT22;16599;47.078;15.536;2023-03-23T04:08:15;3.80;99.90
29687;DHT22;16599;47.078;15.536;2023-03-23T04:10:40;3.90;99.90
29687;DHT22;16599;47.078;15.536;2023-03-23T04:13:06;3.90;99.90
29687;DHT22;16599;47.078;15.536;2023-03-23T04:15:31;3.70;99.90
29687;DHT22;16599;47.078;15.536;2023-03-23T04:17:57;3.80;99.90
29687;DHT22;16599;47.078;15.536;2023-03-23T04:20:24;3.90;99.90
29687;DHT22;16599;47.078;15.536;2023-03-23T04:22:50;3.90;99.90
29687;DHT22;16599;47.078;15.536;2023-03-23T04:25:18;3.80;99.90
29687;DHT22;16599;47.078;15.536;2023-03-23T04:27:46;3.60;99.90
29687;DHT22;16599;47.078;15.536;2023-03-23T04:30:18;3.90;99.90
29687;DHT22;16599;47.078;15.536;2023-03-23T04:32:45;3.80;99.90
29687;DHT22;16599;47.078;15.536;2023-03-23T04:35:11;3.80;99.90
29687;DHT22;16599;47.078;15.536;2023-03-23T04:37:37;3.90;99.90
29687;DHT22;16599;47.078;15.536;2023-03-23T04:40:04;4.00;99.90
29687;DHT22;16599;47.078;15.536;2023-03-23T04:42:36;4.10;99.90
29687;DHT22;16599;47.078;15.536;2023-03-23T04:45:02;4.00;99.90
29687;DHT22;16599;47.078;15.536;2023-03-23T04:47:31;4.10;99.90
29687;DHT22;16599;47.078;15.536;2023-03-23T04:49:57;4.20;99.90
29687;DHT22;16599;47.078;15.536;2023-03-23T04:52:26;4.10;99.90
29687;DHT22;16599;47.078;15.536;2023-03-23T04:54:54;4.20;99.90
29687;DHT22;16599;47.078;15.536;2023-03-23T04:57:21;4.10;99.90
29687;DHT22;16599;47.078;15.536;2023-03-23T04:59:47;3.80;99.90
29687;DHT22;16599;47.078;15.536;2023-03-23T05:02:12;3.80;99.90
29687;DHT22;16599;47.078;15.536;2023-03-23T05:04:38;4.00;99.90
29687;DHT22;16599;47.078;15.536;2023-03-23T05:07:06;4.00;99.90
29687;DHT22;16599;47.078;15.536;2023-03-23T05:09:32;3.80;99.90
29687;DHT22;16599;47.078;15.536;2023-03-23T05:11:57;3.80;99.90
29687;DHT22;16599;47.078;15.536;2023-03-23T05:14:28;4.00;99.90
29687;DHT22;16599;47.078;15.536;2023-03-23T05:16:53;3.90;99.90
29687;DHT22;16599;47.078;15.536;2023-03-23T05:19:19;3.70;99.90
29687;DHT22;16599;47.078;15.536;2023-03-23T05:21:45;3.80;99.90
29687;DHT22;16599;47.078;15.536;2023-03-23T05:24:10;4.10;99.90
29687;DHT22;16599;47.078;15.536;2023-03-23T05:26:36;4.10;99.90
29687;DHT22;16599;47.078;15.536;2023-03-23T05:29:02;4.00;99.90
29687;DHT22;16599;47.078;15.536;2023-03-23T05:31:27;4.10;99.90
29687;DHT22;16599;47.078;15.536;2023-03-23T05:33:53;4.30;99.90
29687;DHT22;16599;47.078;15.536;2023-03-23T05:36:18;4.10;99.90
29687;DHT22;16599;47.078;15.536;2023-03-23T05:38:44;4.30;99.90
29687;DHT22;16599;47.078;15.536;2023-03-23T05:41:13;4.50;99.90
29687;DHT22;16599;47.078;15.536;2023-03-23T05:43:39;4.70;99.90
29687;DHT22;16599;47.078;15.536;2023-03-23T05:46:05;4.70;99.90
29687;DHT22;16599;47.078;15.536;2023-03-23T05:48:32;4.70;99.90
29687;DHT22;16599;47.078;15.536;2023-03-23T05:50:58;4.70;99.90
29687;DHT22;16599;47.078;15.536;2023-03-23T05:53:24;4.90;99.90
29687;DHT22;16599;47.078;15.536;2023-03-23T05:55:49;5.00;99.90
29687;DHT22;16599;47.078;15.536;2023-03-23T05:58:15;5.00;99.90
29687;DHT22;16599;47.078;15.536;2023-03-23T06:00:41;5.10;99.90
29687;DHT22;16599;47.078;15.536;2023-03-23T06:03:06;5.20;99.90
29687;DHT22;16599;47.078;15.536;2023-03-23T06:05:32;5.30;99.90
29687;DHT22;16599;47.078;15.536;2023-03-23T06:07:58;5.30;99.90
29687;DHT22;16599;47.078;15.536;2023-03-23T06:10:24;5.40;99.90
29687;DHT22;16599;47.078;15.536;2023-03-23T06:12:50;5.50;99.90
29687;DHT22;16599;47.078;15.536;2023-03-23T06:15:16;5.60;99.90
29687;DHT22;16599;47.078;15.536;2023-03-23T06:17:42;5.60;99.90
29687;DHT22;16599;47.078;15.536;2023-03-23T06:20:08;5.60;99.90
29687;DHT22;16599;47.078;15.536;2023-03-23T06:22:38;5.70;99.90
29687;DHT22;16599;47.078;15.536;2023-03-23T06:25:09;5.80;99.90
29687;DHT22;16599;47.078;15.536;2023-03-23T06:27:36;6.00;99.90
29687;DHT22;16599;47.078;15.536;2023-03-23T06:30:03;6.00;99.90
29687;DHT22;16599;47.078;15.536;2023-03-23T06:32:29;6.10;99.90
29687;DHT22;16599;47.078;15.536;2023-03-23T06:34:55;6.20;99.90
29687;DHT22;16599;47.078;15.536;2023-03-23T06:37:22;6.30;99.90
29687;DHT22;16599;47.078;15.536;2023-03-23T06:39:48;6.40;99.90
29687;DHT22;16599;47.078;15.536;2023-03-23T06:42:14;6.50;99.90
29687;DHT22;16599;47.078;15.536;2023-03-23T06:44:40;6.60;99.90
29687;DHT22;16599;47.078;15.536;2023-03-23T06:47:05;6.60;99.90
29687;DHT22;16599;47.078;15.536;2023-03-23T06:49:31;6.70;99.90
29687;DHT22;16599;47.078;15.536;2023-03-23T06:51:57;6.90;99.90
29687;DHT22;16599;47.078;15.536;2023-03-23T06:54:23;7.10;99.90
29687;DHT22;16599;47.078;15.536;2023-03-23T06:56:48;7.20;99.90
29687;DHT22;16599;47.078;15.536;2023-03-23T06:59:14;7.40;99.90
29687;DHT22;16599;47.078;15.536;2023-03-23T07:01:39;7.50;99.90
29687;DHT22;16599;47.078;15.536;2023-03-23T07:04:05;7.50;99.90
29687;DHT22;16599;47.078;15.536;2023-03-23T07:06:31;7.60;99.90
29687;DHT22;16599;47.078;15.536;2023-03-23T07:08:57;7.70;99.90
29687;DHT22;16599;47.078;15.536;2023-03-23T07:11:22;7.80;99.90
29687;DHT22;16599;47.078;15.536;2023-03-23T07:13:48;8.10;99.90
29687;DHT22;16599;47.078;15.536;2023-03-23T07:16:15;8.40;99.90
29687;DHT22;16599;47.078;15.536;2023-03-23T07:18:41;8.50;99.90
29687;DHT22;16599;47.078;15.536;2023-03-23T07:21:07;8.70;99.90
29687;DHT22;16599;47.078;15.536;2023-03-23T07:23:33;9.00;99.90
29687;DHT22;16599;47.078;15.536;2023-03-23T07:25:58;9.20;99.90
29687;DHT22;16599;47.078;15.536;2023-03-23T07:28:24;9.50;99.90
29687;DHT22;16599;47.078;15.536;2023-03-23T07:30:50;9.80;99.90
29687;DHT22;16599;47.078;15.536;2023-03-23T07:33:16;9.90;99.80
29687;DHT22;16599;47.078;15.536;2023-03-23T07:35:41;9.90;99.30
29687;DHT22;16599;47.078;15.536;2023-03-23T07:38:07;10.10;99.60
29687;DHT22;16599;47.078;15.536;2023-03-23T07:40:34;10.20;98.60
29687;DHT22;16599;47.078;15.536;2023-03-23T07:43:00;10.40;98.60
29687;DHT22;16599;47.078;15.536;2023-03-23T07:48:31;10.70;96.80
29687;DHT22;16599;47.078;15.536;2023-03-23T07:50:57;11.00;96.50
29687;DHT22;16599;47.078;15.536;2023-03-23T07:53:23;11.20;96.00
29687;DHT22;16599;47.078;15.536;2023-03-23T07:55:49;11.40;96.30
29687;DHT22;16599;47.078;15.536;2023-03-23T07:58:15;11.60;95.60
29687;DHT22;16599;47.078;15.536;2023-03-23T08:00:47;11.70;95.50
29687;DHT22;16599;47.078;15.536;2023-03-23T08:03:14;12.00;95.50
29687;DHT22;16599;47.078;15.536;2023-03-23T08:05:41;12.10;93.60
29687;DHT22;16599;47.078;15.536;2023-03-23T08:08:07;12.20;92.70
29687;DHT22;16599;47.078;15.536;2023-03-23T08:10:33;12.20;92.60
29687;DHT22;16599;47.078;15.536;2023-03-23T08:12:58;12.20;92.70
29687;DHT22;16599;47.078;15.536;2023-03-23T08:15:25;12.20;92.80
29687;DHT22;16599;47.078;15.536;2023-03-23T08:17:51;12.40;92.70
29687;DHT22;16599;47.078;15.536;2023-03-23T08:20:17;12.50;92.70
29687;DHT22;16599;47.078;15.536;2023-03-23T08:22:48;12.50;92.50
29687;DHT22;16599;47.078;15.536;2023-03-23T08:25:14;12.70;92.50
29687;DHT22;16599;47.078;15.536;2023-03-23T08:27:39;12.70;92.20
29687;DHT22;16599;47.078;15.536;2023-03-23T08:30:13;12.70;91.60
29687;DHT22;16599;47.078;15.536;2023-03-23T08:32:39;12.90;91.50
29687;DHT22;16599;47.078;15.536;2023-03-23T08:35:05;13.00;91.70
29687;DHT22;16599;47.078;15.536;2023-03-23T08:37:32;13.10;91.30
29687;DHT22;16599;47.078;15.536;2023-03-23T08:39:57;13.20;91.40
29687;DHT22;16599;47.078;15.536;2023-03-23T08:42:24;13.30;91.40
29687;DHT22;16599;47.078;15.536;2023-03-23T08:44:50;13.50;91.80
29687;DHT22;16599;47.078;15.536;2023-03-23T08:47:16;13.50;90.20
29687;DHT22;16599;47.078;15.536;2023-03-23T08:49:43;13.60;90.30
29687;DHT22;16599;47.078;15.536;2023-03-23T08:52:08;13.80;90.40
29687;DHT22;16599;47.078;15.536;2023-03-23T08:54:34;13.90;90.70
29687;DHT22;16599;47.078;15.536;2023-03-23T08:57:00;14.00;89.30
29687;DHT22;16599;47.078;15.536;2023-03-23T08:59:27;14.00;87.70
29687;DHT22;16599;47.078;15.536;2023-03-23T09:01:53;14.10;86.10
29687;DHT22;16599;47.078;15.536;2023-03-23T09:04:18;14.00;86.00
29687;DHT22;16599;47.078;15.536;2023-03-23T09:06:44;14.10;85.80
29687;DHT22;16599;47.078;15.536;2023-03-23T09:09:17;14.10;85.90
29687;DHT22;16599;47.078;15.536;2023-03-23T09:11:46;14.20;86.10
29687;DHT22;16599;47.078;15.536;2023-03-23T09:14:12;14.30;85.20
29687;DHT22;16599;47.078;15.536;2023-03-23T09:16:41;14.40;85.40
29687;DHT22;16599;47.078;15.536;2023-03-23T09:19:07;14.50;84.70
29687;DHT22;16599;47.078;15.536;2023-03-23T09:21:34;14.60;84.90
29687;DHT22;16599;47.078;15.536;2023-03-23T09:23:59;14.80;83.70
29687;DHT22;16599;47.078;15.536;2023-03-23T09:26:27;14.80;83.00
29687;DHT22;16599;47.078;15.536;2023-03-23T09:28:53;14.90;83.00
29687;DHT22;16599;47.078;15.536;2023-03-23T09:31:18;15.10;83.00
29687;DHT22;16599;47.078;15.536;2023-03-23T09:33:46;15.10;82.80
29687;DHT22;16599;47.078;15.536;2023-03-23T09:36:12;15.20;79.80
29687;DHT22;16599;47.078;15.536;2023-03-23T09:38:40;15.20;80.20
29687;DHT22;16599;47.078;15.536;2023-03-23T09:41:19;15.20;81.20
29687;DHT22;16599;47.078;15.536;2023-03-23T09:44:09;15.20;80.30
29687;DHT22;16599;47.078;15.536;2023-03-23T09:46:42;15.30;78.30
29687;DHT22;16599;47.078;15.536;2023-03-23T09:49:10;15.30;77.90
29687;DHT22;16599;47.078;15.536;2023-03-23T09:54:28;15.40;76.50
29687;DHT22;16599;47.078;15.536;2023-03-23T09:56:55;15.60;75.70
29687;DHT22;16599;47.078;15.536;2023-03-23T10:01:57;15.80;75.70
29687;DHT22;16599;47.078;15.536;2023-03-23T10:07:15;16.50;72.30
29687;DHT22;16599;47.078;15.536;2023-03-23T10:09:42;16.30;71.90
29687;DHT22;16599;47.078;15.536;2023-03-23T10:22:10;16.80;75.40
29687;DHT22;16599;47.078;15.536;2023-03-23T10:24:45;16.90;74.70
29687;DHT22;16599;47.078;15.536;2023-03-23T10:27:18;17.00;72.90
29687;DHT22;16599;47.078;15.536;2023-03-23T10:30:10;17.10;73.00
29687;DHT22;16599;47.078;15.536;2023-03-23T10:32:53;17.20;72.50
29687;DHT22;16599;47.078;15.536;2023-03-23T10:35:20;17.40;69.80
29687;DHT22;16599;47.078;15.536;2023-03-23T10:37:50;17.40;70.70
29687;DHT22;16599;47.078;15.536;2023-03-23T10:40:20;17.50;72.10
29687;DHT22;16599;47.078;15.536;2023-03-23T10:42:46;18.00;68.90
29687;DHT22;16599;47.078;15.536;2023-03-23T10:47:44;18.00;66.80
29687;DHT22;16599;47.078;15.536;2023-03-23T10:50:13;18.00;67.00
29687;DHT22;16599;47.078;15.536;2023-03-23T10:52:40;17.90;67.00
29687;DHT22;16599;47.078;15.536;2023-03-23T10:55:10;18.00;66.70
29687;DHT22;16599;47.078;15.536;2023-03-23T10:57:37;18.10;66.30
29687;DHT22;16599;47.078;15.536;2023-03-23T11:02:40;18.40;67.20
29687;DHT22;16599;47.078;15.536;2023-03-23T11:05:26;18.90;65.50
29687;DHT22;16599;47.078;15.536;2023-03-23T11:11:55;18.60;62.80
29687;DHT22;16599;47.078;15.536;2023-03-23T11:17:55;19.20;64.80
29687;DHT22;16599;47.078;15.536;2023-03-23T11:23:53;19.40;63.50
29687;DHT22;16599;47.078;15.536;2023-03-23T11:26:22;19.00;66.30
29687;DHT22;16599;47.078;15.536;2023-03-23T11:32:11;19.60;64.60
29687;DHT22;16599;47.078;15.536;2023-03-23T11:34:57;19.20;63.20
29687;DHT22;16599;47.078;15.536;2023-03-23T11:39:53;18.90;63.60
29687;DHT22;16599;47.078;15.536;2023-03-23T11:42:23;18.60;64.40
29687;DHT22;16599;47.078;15.536;2023-03-23T11:45:35;18.60;65.60
29687;DHT22;16599;47.078;15.536;2023-03-23T11:50:32;18.80;65.10
29687;DHT22;16599;47.078;15.536;2023-03-23T11:55:50;18.60;65.00
29687;DHT22;16599;47.078;15.536;2023-03-23T11:58:18;18.40;66.20
29687;DHT22;16599;47.078;15.536;2023-03-23T12:03:11;18.60;67.00
29687;DHT22;16599;47.078;15.536;2023-03-23T12:09:12;18.90;67.50
29687;DHT22;16599;47.078;15.536;2023-03-23T12:17:00;19.80;63.50
29687;DHT22;16599;47.078;15.536;2023-03-23T12:19:39;19.80;62.30
29687;DHT22;16599;47.078;15.536;2023-03-23T12:35:09;19.50;61.60
29687;DHT22;16599;47.078;15.536;2023-03-23T12:42:55;19.90;61.10
29687;DHT22;16599;47.078;15.536;2023-03-23T12:48:12;20.00;61.80
29687;DHT22;16599;47.078;15.536;2023-03-23T12:50:40;20.10;61.50
29687;DHT22;16599;47.078;15.536;2023-03-23T12:53:12;19.70;61.50
29687;DHT22;16599;47.078;15.536;2023-03-23T12:55:40;19.30;64.00
29687;DHT22;16599;47.078;15.536;2023-03-23T12:58:13;19.00;62.40
29687;DHT22;16599;47.078;15.536;2023-03-23T13:00:57;18.80;63.50
29687;DHT22;16599;47.078;15.536;2023-03-23T13:04:18;19.60;63.40
29687;DHT22;16599;47.078;15.536;2023-03-23T13:06:45;19.90;60.80
29687;DHT22;16599;47.078;15.536;2023-03-23T13:12:40;19.60;62.20
29687;DHT22;16599;47.078;15.536;2023-03-23T13:17:35;19.40;61.60
29687;DHT22;16599;47.078;15.536;2023-03-23T13:22:39;19.20;63.30
29687;DHT22;16599;47.078;15.536;2023-03-23T13:34:52;19.50;62.70
29687;DHT22;16599;47.078;15.536;2023-03-23T13:40:52;19.20;61.40
29687;DHT22;16599;47.078;15.536;2023-03-23T13:43:29;19.40;61.20
29687;DHT22;16599;47.078;15.536;2023-03-23T13:45:55;19.60;61.40
29687;DHT22;16599;47.078;15.536;2023-03-23T13:52:14;20.30;58.30
29687;DHT22;16599;47.078;15.536;2023-03-23T13:55:42;20.00;58.20
29687;DHT22;16599;47.078;15.536;2023-03-23T13:58:21;19.60;60.90
29687;DHT22;16599;47.078;15.536;2023-03-23T14:00:48;20.10;59.40
29687;DHT22;16599;47.078;15.536;2023-03-23T14:03:24;20.30;57.10
29687;DHT22;16599;47.078;15.536;2023-03-23T14:15:57;20.40;58.30
29687;DHT22;16599;47.078;15.536;2023-03-23T14:18:23;20.50;56.50
29687;DHT22;16599;47.078;15.536;2023-03-23T14:29:11;21.10;56.10
29687;DHT22;16599;47.078;15.536;2023-03-23T14:42:04;20.60;55.30
29687;DHT22;16599;47.078;15.536;2023-03-23T14:44:48;20.30;56.00
29687;DHT22;16599;47.078;15.536;2023-03-23T14:47:35;20.50;55.10
29687;DHT22;16599;47.078;15.536;2023-03-23T14:50:00;20.60;55.20
29687;DHT22;16599;47.078;15.536;2023-03-23T14:52:32;20.60;55.20
29687;DHT22;16599;47.078;15.536;2023-03-23T14:55:10;20.70;55.70
29687;DHT22;16599;47.078;15.536;2023-03-23T14:57:39;20.70;55.70
29687;DHT22;16599;47.078;15.536;2023-03-23T15:00:10;20.50;55.20
29687;DHT22;16599;47.078;15.536;2023-03-23T15:02:38;20.50;55.40
29687;DHT22;16599;47.078;15.536;2023-03-23T15:13:32;19.50;56.70
29687;DHT22;16599;47.078;15.536;2023-03-23T15:16:06;19.60;56.40
29687;DHT22;16599;47.078;15.536;2023-03-23T15:18:36;19.40;57.20
29687;DHT22;16599;47.078;15.536;2023-03-23T15:21:10;19.40;55.70
29687;DHT22;16599;47.078;15.536;2023-03-23T15:23:40;19.30;55.90
29687;DHT22;16599;47.078;15.536;2023-03-23T15:26:06;19.20;57.30
29687;DHT22;16599;47.078;15.536;2023-03-23T15:28:38;19.10;56.70
29687;DHT22;16599;47.078;15.536;2023-03-23T15:31:05;18.90;57.90
29687;DHT22;16599;47.078;15.536;2023-03-23T15:33:38;19.00;57.50
29687;DHT22;16599;47.078;15.536;2023-03-23T15:36:08;19.00;57.60
29687;DHT22;16599;47.078;15.536;2023-03-23T15:38:34;18.90;59.00
29687;DHT22;16599;47.078;15.536;2023-03-23T15:41:01;18.90;58.80
29687;DHT22;16599;47.078;15.536;2023-03-23T15:45:57;19.00;59.20
29687;DHT22;16599;47.078;15.536;2023-03-23T15:48:28;18.80;59.30
29687;DHT22;16599;47.078;15.536;2023-03-23T15:50:54;18.80;59.70
29687;DHT22;16599;47.078;15.536;2023-03-23T15:55:52;18.60;60.90
29687;DHT22;16599;47.078;15.536;2023-03-23T15:58:17;18.70;60.50
29687;DHT22;16599;47.078;15.536;2023-03-23T16:01:48;18.70;60.40
29687;DHT22;16599;47.078;15.536;2023-03-23T16:04:16;18.50;60.40
29687;DHT22;16599;47.078;15.536;2023-03-23T16:06:43;18.40;61.30
29687;DHT22;16599;47.078;15.536;2023-03-23T16:09:12;18.40;61.70
29687;DHT22;16599;47.078;15.536;2023-03-23T16:11:39;18.40;61.60
29687;DHT22;16599;47.078;15.536;2023-03-23T16:27:44;17.90;65.80
29687;DHT22;16599;47.078;15.536;2023-03-23T16:30:21;17.50;68.80
29687;DHT22;16599;47.078;15.536;2023-03-23T16:32:48;17.20;70.60
29687;DHT22;16599;47.078;15.536;2023-03-23T16:35:17;16.80;71.20
29687;DHT22;16599;47.078;15.536;2023-03-23T16:37:48;16.70;71.10
29687;DHT22;16599;47.078;15.536;2023-03-23T16:40:16;16.80;70.80
29687;DHT22;16599;47.078;15.536;2023-03-23T16:42:43;16.80;70.90
29687;DHT22;16599;47.078;15.536;2023-03-23T16:48:31;16.50;72.00
29687;DHT22;16599;47.078;15.536;2023-03-23T17:32:33;13.10;85.70
29687;DHT22;16599;47.078;15.536;2023-03-23T17:38:42;13.30;85.50
29687;DHT22;16599;47.078;15.536;2023-03-23T17:41:08;13.10;85.60
29687;DHT22;16599;47.078;15.536;2023-03-23T17:43:37;12.90;86.50
29687;DHT22;16599;47.078;15.536;2023-03-23T17:46:08;12.80;86.60
29687;DHT22;16599;47.078;15.536;2023-03-23T17:55:41;12.60;87.90
29687;DHT22;16599;47.078;15.536;2023-03-23T18:01:42;12.40;88.60
29687;DHT22;16599;47.078;15.536;2023-03-23T18:07:33;12.30;89.10
29687;DHT22;16599;47.078;15.536;2023-03-23T18:13:30;12.10;89.70
29687;DHT22;16599;47.078;15.536;2023-03-23T18:15:57;11.90;90.30
29687;DHT22;16599;47.078;15.536;2023-03-23T18:18:24;11.80;90.50
29687;DHT22;16599;47.078;15.536;2023-03-23T18:20:55;11.80;90.60
29687;DHT22;16599;47.078;15.536;2023-03-23T18:23:22;11.50;90.50
29687;DHT22;16599;47.078;15.536;2023-03-23T18:25:49;11.10;91.50
29687;DHT22;16599;47.078;15.536;2023-03-23T18:28:16;11.10;92.40
29687;DHT22;16599;47.078;15.536;2023-03-23T18:30:43;11.00;92.70
29687;DHT22;16599;47.078;15.536;2023-03-23T18:36:48;11.10;92.70
29687;DHT22;16599;47.078;15.536;2023-03-23T18:39:14;11.10;93.00
29687;DHT22;16599;47.078;15.536;2023-03-23T18:41:41;11.00;93.40
29687;DHT22;16599;47.078;15.536;2023-03-23T18:44:08;11.10;93.20
29687;DHT22;16599;47.078;15.536;2023-03-23T18:49:57;11.30;92.80
29687;DHT22;16599;47.078;15.536;2023-03-23T18:52:25;11.30;93.00
29687;DHT22;16599;47.078;15.536;2023-03-23T18:54:52;11.20;93.10
29687;DHT22;16599;47.078;15.536;2023-03-23T18:57:19;11.00;92.60
29687;DHT22;16599;47.078;15.536;2023-03-23T19:03:23;10.60;94.90
29687;DHT22;16599;47.078;15.536;2023-03-23T19:09:21;10.70;93.70
29687;DHT22;16599;47.078;15.536;2023-03-23T19:11:48;10.80;93.90
29687;DHT22;16599;47.078;15.536;2023-03-23T19:14:14;10.60;94.10
29687;DHT22;16599;47.078;15.536;2023-03-23T19:20:37;10.00;95.00
29687;DHT22;16599;47.078;15.536;2023-03-23T19:23:24;10.00;95.30
29687;DHT22;16599;47.078;15.536;2023-03-23T19:25:51;10.30;95.00
29687;DHT22;16599;47.078;15.536;2023-03-23T19:28:19;10.40;94.90
29687;DHT22;16599;47.078;15.536;2023-03-23T19:31:05;10.50;94.60
29687;DHT22;16599;47.078;15.536;2023-03-23T19:33:32;10.60;94.20
29687;DHT22;16599;47.078;15.536;2023-03-23T19:35:59;10.50;94.60
29687;DHT22;16599;47.078;15.536;2023-03-23T19:38:38;10.50;94.50
29687;DHT22;16599;47.078;15.536;2023-03-23T19:41:05;10.30;94.30
29687;DHT22;16599;47.078;15.536;2023-03-23T19:43:32;10.10;94.60
29687;DHT22;16599;47.078;15.536;2023-03-23T19:45:59;10.10;95.20
29687;DHT22;16599;47.078;15.536;2023-03-23T19:48:26;10.20;94.90
29687;DHT22;16599;47.078;15.536;2023-03-23T19:50:54;10.20;94.80
29687;DHT22;16599;47.078;15.536;2023-03-23T19:53:22;10.00;95.30
29687;DHT22;16599;47.078;15.536;2023-03-23T19:55:48;9.80;95.80
29687;DHT22;16599;47.078;15.536;2023-03-23T19:58:16;9.80;96.00
29687;DHT22;16599;47.078;15.536;2023-03-23T20:00:42;9.90;95.90
29687;DHT22;16599;47.078;15.536;2023-03-23T20:03:11;9.80;95.60
29687;DHT22;16599;47.078;15.536;2023-03-23T20:05:38;9.80;95.60